sensor_id;sensor_type;location;lat;lon;timestamp;P1;durP1;ratioP1;P2;durP2;ratioP2
12681;SDS011;6405;59.208;18.216;2023-03-14T00:00:35;7.70;;;1.97;;
12681;SDS011;6405;59.208;18.216;2023-03-14T00:03:01;5.37;;;1.90;;
12681;SDS011;6405;59.208;18.216;2023-03-14T00:05:26;3.33;;;1.50;;
12681;SDS011;6405;59.208;18.216;2023-03-14T00:07:52;5.60;;;1.80;;
12681;SDS011;6405;59.208;18.216;2023-03-14T00:10:18;4.40;;;1.83;;
12681;SDS011;6405;59.208;18.216;2023-03-14T00:12:44;9.13;;;1.90;;
12681;SDS011;6405;59.208;18.216;2023-03-14T00:15:10;2.67;;;1.67;;
12681;SDS011;6405;59.208;18.216;2023-03-14T00:17:37;5.30;;;1.90;;
12681;SDS011;6405;59.208;18.216;2023-03-14T00:20:06;5.60;;;2.03;;
12681;SDS011;6405;59.208;18.216;2023-03-14T00:22:39;4.37;;;1.50;;
12681;SDS011;6405;59.208;18.216;2023-03-14T00:25:06;5.80;;;1.50;;
12681;SDS011;6405;59.208;18.216;2023-03-14T00:27:33;5.93;;;1.37;;
12681;SDS011;6405;59.208;18.216;2023-03-14T00:29:59;4.17;;;1.40;;
12681;SDS011;6405;59.208;18.216;2023-03-14T00:32:25;3.30;;;1.50;;
12681;SDS011;6405;59.208;18.216;2023-03-14T00:34:51;3.30;;;1.20;;
12681;SDS011;6405;59.208;18.216;2023-03-14T00:37:16;5.70;;;1.23;;
12681;SDS011;6405;59.208;18.216;2023-03-14T00:39:42;7.33;;;1.23;;
12681;SDS011;6405;59.208;18.216;2023-03-14T00:42:08;9.23;;;1.30;;
12681;SDS011;6405;59.208;18.216;2023-03-14T00:44:33;3.93;;;1.30;;
12681;SDS011;6405;59.208;18.216;2023-03-14T00:46:59;6.20;;;1.60;;
12681;SDS011;6405;59.208;18.216;2023-03-14T00:49:25;6.23;;;1.00;;
12681;SDS011;6405;59.208;18.216;2023-03-14T00:51:50;5.70;;;1.50;;
12681;SDS011;6405;59.208;18.216;2023-03-14T00:54:17;3.73;;;0.97;;
12681;SDS011;6405;59.208;18.216;2023-03-14T00:56:43;4.10;;;1.03;;
12681;SDS011;6405;59.208;18.216;2023-03-14T00:59:09;6.20;;;1.50;;
12681;SDS011;6405;59.208;18.216;2023-03-14T01:01:34;3.33;;;0.90;;
12681;SDS011;6405;59.208;18.216;2023-03-14T01:04:01;6.87;;;1.00;;
12681;SDS011;6405;59.208;18.216;2023-03-14T01:06:27;4.93;;;1.07;;
12681;SDS011;6405;59.208;18.216;2023-03-14T01:08:54;5.87;;;1.10;;
12681;SDS011;6405;59.208;18.216;2023-03-14T01:11:31;5.93;;;1.23;;
12681;SDS011;6405;59.208;18.216;2023-03-14T01:13:58;7.37;;;1.10;;
12681;SDS011;6405;59.208;18.216;2023-03-14T01:16:28;1.40;;;0.90;;
12681;SDS011;6405;59.208;18.216;2023-03-14T01:18:55;5.53;;;0.97;;
12681;SDS011;6405;59.208;18.216;2023-03-14T01:21:22;4.67;;;0.90;;
12681;SDS011;6405;59.208;18.216;2023-03-14T01:23:50;4.23;;;1.30;;
12681;SDS011;6405;59.208;18.216;2023-03-14T01:26:18;6.43;;;0.90;;
12681;SDS011;6405;59.208;18.216;2023-03-14T01:28:46;3.07;;;1.10;;
12681;SDS011;6405;59.208;18.216;2023-03-14T01:31:13;1.60;;;0.70;;
12681;SDS011;6405;59.208;18.216;2023-03-14T01:33:39;6.17;;;1.10;;
12681;SDS011;6405;59.208;18.216;2023-03-14T01:36:05;3.40;;;0.90;;
12681;SDS011;6405;59.208;18.216;2023-03-14T01:38:32;3.53;;;1.10;;
12681;SDS011;6405;59.208;18.216;2023-03-14T01:40:59;5.50;;;1.20;;
12681;SDS011;6405;59.208;18.216;2023-03-14T01:43:26;3.83;;;0.87;;
12681;SDS011;6405;59.208;18.216;2023-03-14T01:51:18;2.47;;;1.10;;
12681;SDS011;6405;59.208;18.216;2023-03-14T01:53:53;5.53;;;1.10;;
12681;SDS011;6405;59.208;18.216;2023-03-14T01:56:24;2.23;;;0.90;;
12681;SDS011;6405;59.208;18.216;2023-03-14T01:58:50;3.93;;;1.00;;
12681;SDS011;6405;59.208;18.216;2023-03-14T02:01:18;2.63;;;0.80;;
12681;SDS011;6405;59.208;18.216;2023-03-14T02:03:54;4.87;;;0.90;;
12681;SDS011;6405;59.208;18.216;2023-03-14T02:06:26;7.13;;;1.50;;
12681;SDS011;6405;59.208;18.216;2023-03-14T02:08:57;5.20;;;1.07;;
12681;SDS011;6405;59.208;18.216;2023-03-14T02:11:26;6.87;;;1.47;;
12681;SDS011;6405;59.208;18.216;2023-03-14T02:13:55;4.33;;;1.10;;
12681;SDS011;6405;59.208;18.216;2023-03-14T02:16:22;0.97;;;0.70;;
12681;SDS011;6405;59.208;18.216;2023-03-14T02:18:48;9.03;;;1.43;;
12681;SDS011;6405;59.208;18.216;2023-03-14T02:27:10;5.03;;;1.57;;
12681;SDS011;6405;59.208;18.216;2023-03-14T02:29:40;2.33;;;0.97;;
12681;SDS011;6405;59.208;18.216;2023-03-14T02:32:18;2.73;;;1.20;;
12681;SDS011;6405;59.208;18.216;2023-03-14T02:34:46;3.03;;;1.70;;
12681;SDS011;6405;59.208;18.216;2023-03-14T02:37:19;2.70;;;1.03;;
12681;SDS011;6405;59.208;18.216;2023-03-14T02:39:47;3.13;;;1.10;;
12681;SDS011;6405;59.208;18.216;2023-03-14T02:42:14;3.33;;;1.10;;
12681;SDS011;6405;59.208;18.216;2023-03-14T02:44:54;4.60;;;1.03;;
12681;SDS011;6405;59.208;18.216;2023-03-14T02:47:27;5.70;;;1.20;;
12681;SDS011;6405;59.208;18.216;2023-03-14T02:49:57;2.27;;;1.00;;
12681;SDS011;6405;59.208;18.216;2023-03-14T02:52:29;6.47;;;1.13;;
12681;SDS011;6405;59.208;18.216;2023-03-14T02:54:55;3.17;;;1.13;;
12681;SDS011;6405;59.208;18.216;2023-03-14T02:57:20;4.27;;;1.20;;
12681;SDS011;6405;59.208;18.216;2023-03-14T02:59:46;4.93;;;1.40;;
12681;SDS011;6405;59.208;18.216;2023-03-14T03:02:12;8.03;;;1.20;;
12681;SDS011;6405;59.208;18.216;2023-03-14T03:04:37;4.37;;;1.20;;
12681;SDS011;6405;59.208;18.216;2023-03-14T03:07:03;6.00;;;1.30;;
12681;SDS011;6405;59.208;18.216;2023-03-14T03:09:28;8.63;;;1.13;;
12681;SDS011;6405;59.208;18.216;2023-03-14T03:11:54;3.30;;;0.97;;
12681;SDS011;6405;59.208;18.216;2023-03-14T03:14:20;4.53;;;1.10;;
12681;SDS011;6405;59.208;18.216;2023-03-14T03:16:45;10.10;;;2.00;;
12681;SDS011;6405;59.208;18.216;2023-03-14T03:19:11;7.90;;;1.50;;
12681;SDS011;6405;59.208;18.216;2023-03-14T03:21:38;6.27;;;1.40;;
12681;SDS011;6405;59.208;18.216;2023-03-14T03:24:04;5.70;;;1.23;;
12681;SDS011;6405;59.208;18.216;2023-03-14T03:26:30;9.80;;;1.90;;
12681;SDS011;6405;59.208;18.216;2023-03-14T03:28:55;6.17;;;1.53;;
12681;SDS011;6405;59.208;18.216;2023-03-14T03:31:21;9.40;;;1.50;;
12681;SDS011;6405;59.208;18.216;2023-03-14T03:33:47;5.50;;;1.40;;
12681;SDS011;6405;59.208;18.216;2023-03-14T03:36:12;6.77;;;1.60;;
12681;SDS011;6405;59.208;18.216;2023-03-14T03:38:38;5.27;;;1.37;;
12681;SDS011;6405;59.208;18.216;2023-03-14T03:41:04;7.13;;;2.13;;
12681;SDS011;6405;59.208;18.216;2023-03-14T03:43:31;5.03;;;1.50;;
12681;SDS011;6405;59.208;18.216;2023-03-14T03:45:57;7.90;;;1.50;;
12681;SDS011;6405;59.208;18.216;2023-03-14T03:48:23;6.37;;;1.90;;
12681;SDS011;6405;59.208;18.216;2023-03-14T03:50:48;5.37;;;1.60;;
12681;SDS011;6405;59.208;18.216;2023-03-14T03:53:14;8.43;;;1.33;;
12681;SDS011;6405;59.208;18.216;2023-03-14T03:55:43;7.80;;;1.57;;
12681;SDS011;6405;59.208;18.216;2023-03-14T03:58:08;7.93;;;1.80;;
12681;SDS011;6405;59.208;18.216;2023-03-14T04:00:34;10.90;;;2.33;;
12681;SDS011;6405;59.208;18.216;2023-03-14T04:03:02;5.60;;;1.63;;
12681;SDS011;6405;59.208;18.216;2023-03-14T04:05:28;7.27;;;1.53;;
12681;SDS011;6405;59.208;18.216;2023-03-14T04:07:54;6.03;;;1.60;;
12681;SDS011;6405;59.208;18.216;2023-03-14T04:10:19;4.30;;;1.33;;
12681;SDS011;6405;59.208;18.216;2023-03-14T04:12:45;5.50;;;1.50;;
12681;SDS011;6405;59.208;18.216;2023-03-14T04:15:10;4.70;;;1.10;;
12681;SDS011;6405;59.208;18.216;2023-03-14T04:17:36;4.87;;;1.30;;
12681;SDS011;6405;59.208;18.216;2023-03-14T04:20:02;3.77;;;1.40;;
12681;SDS011;6405;59.208;18.216;2023-03-14T04:22:29;3.13;;;1.03;;
12681;SDS011;6405;59.208;18.216;2023-03-14T04:24:55;3.97;;;1.13;;
12681;SDS011;6405;59.208;18.216;2023-03-14T04:27:20;2.43;;;1.00;;
12681;SDS011;6405;59.208;18.216;2023-03-14T04:29:46;4.27;;;1.33;;
12681;SDS011;6405;59.208;18.216;2023-03-14T04:32:12;2.83;;;0.90;;
12681;SDS011;6405;59.208;18.216;2023-03-14T04:34:37;3.47;;;1.50;;
12681;SDS011;6405;59.208;18.216;2023-03-14T04:37:03;4.50;;;1.13;;
12681;SDS011;6405;59.208;18.216;2023-03-14T04:39:28;3.40;;;1.57;;
12681;SDS011;6405;59.208;18.216;2023-03-14T04:41:54;5.10;;;1.27;;
12681;SDS011;6405;59.208;18.216;2023-03-14T04:44:20;4.67;;;1.20;;
12681;SDS011;6405;59.208;18.216;2023-03-14T04:46:45;2.43;;;0.87;;
12681;SDS011;6405;59.208;18.216;2023-03-14T04:49:11;2.90;;;1.23;;
12681;SDS011;6405;59.208;18.216;2023-03-14T04:51:36;3.63;;;1.53;;
12681;SDS011;6405;59.208;18.216;2023-03-14T04:54:02;4.93;;;1.30;;
12681;SDS011;6405;59.208;18.216;2023-03-14T04:56:28;3.60;;;1.00;;
12681;SDS011;6405;59.208;18.216;2023-03-14T04:58:53;4.87;;;1.10;;
12681;SDS011;6405;59.208;18.216;2023-03-14T05:01:19;4.83;;;1.10;;
12681;SDS011;6405;59.208;18.216;2023-03-14T05:03:45;3.63;;;0.73;;
12681;SDS011;6405;59.208;18.216;2023-03-14T05:06:11;4.77;;;0.93;;
12681;SDS011;6405;59.208;18.216;2023-03-14T05:08:36;2.53;;;0.70;;
12681;SDS011;6405;59.208;18.216;2023-03-14T05:11:02;2.07;;;1.20;;
12681;SDS011;6405;59.208;18.216;2023-03-14T05:13:28;5.13;;;0.80;;
12681;SDS011;6405;59.208;18.216;2023-03-14T05:15:53;4.10;;;0.90;;
12681;SDS011;6405;59.208;18.216;2023-03-14T05:18:27;1.20;;;0.53;;
12681;SDS011;6405;59.208;18.216;2023-03-14T05:20:53;1.93;;;0.53;;
12681;SDS011;6405;59.208;18.216;2023-03-14T05:23:19;1.97;;;0.60;;
12681;SDS011;6405;59.208;18.216;2023-03-14T05:25:44;0.57;;;0.40;;
12681;SDS011;6405;59.208;18.216;2023-03-14T05:28:10;1.70;;;0.80;;
12681;SDS011;6405;59.208;18.216;2023-03-14T05:30:36;2.83;;;1.00;;
12681;SDS011;6405;59.208;18.216;2023-03-14T05:33:02;1.93;;;0.60;;
12681;SDS011;6405;59.208;18.216;2023-03-14T05:35:27;2.03;;;0.50;;
12681;SDS011;6405;59.208;18.216;2023-03-14T05:37:53;0.73;;;0.60;;
12681;SDS011;6405;59.208;18.216;2023-03-14T05:40:19;2.57;;;0.80;;
12681;SDS011;6405;59.208;18.216;2023-03-14T05:42:44;6.90;;;0.80;;
12681;SDS011;6405;59.208;18.216;2023-03-14T05:45:10;1.80;;;0.77;;
12681;SDS011;6405;59.208;18.216;2023-03-14T05:47:36;1.73;;;0.60;;
12681;SDS011;6405;59.208;18.216;2023-03-14T05:50:02;2.10;;;0.70;;
12681;SDS011;6405;59.208;18.216;2023-03-14T05:52:28;5.77;;;0.83;;
12681;SDS011;6405;59.208;18.216;2023-03-14T05:54:53;1.33;;;0.50;;
12681;SDS011;6405;59.208;18.216;2023-03-14T05:57:19;3.93;;;1.43;;
12681;SDS011;6405;59.208;18.216;2023-03-14T05:59:45;1.17;;;0.53;;
12681;SDS011;6405;59.208;18.216;2023-03-14T06:02:11;3.07;;;1.03;;
12681;SDS011;6405;59.208;18.216;2023-03-14T06:04:36;1.70;;;0.90;;
12681;SDS011;6405;59.208;18.216;2023-03-14T06:07:02;1.07;;;0.70;;
12681;SDS011;6405;59.208;18.216;2023-03-14T06:09:28;2.90;;;1.20;;
12681;SDS011;6405;59.208;18.216;2023-03-14T06:11:53;2.80;;;0.50;;
12681;SDS011;6405;59.208;18.216;2023-03-14T06:14:19;2.25;;;0.82;;
12681;SDS011;6405;59.208;18.216;2023-03-14T06:16:45;2.43;;;0.80;;
12681;SDS011;6405;59.208;18.216;2023-03-14T06:19:12;2.30;;;0.70;;
12681;SDS011;6405;59.208;18.216;2023-03-14T06:21:38;3.80;;;0.70;;
12681;SDS011;6405;59.208;18.216;2023-03-14T06:24:04;2.77;;;0.60;;
12681;SDS011;6405;59.208;18.216;2023-03-14T06:26:30;2.67;;;0.50;;
12681;SDS011;6405;59.208;18.216;2023-03-14T06:28:56;1.40;;;1.23;;
12681;SDS011;6405;59.208;18.216;2023-03-14T06:31:21;5.43;;;0.67;;
12681;SDS011;6405;59.208;18.216;2023-03-14T06:33:47;1.80;;;0.53;;
12681;SDS011;6405;59.208;18.216;2023-03-14T06:36:13;0.80;;;0.57;;
12681;SDS011;6405;59.208;18.216;2023-03-14T06:38:39;4.43;;;1.00;;
12681;SDS011;6405;59.208;18.216;2023-03-14T06:41:04;1.47;;;0.47;;
12681;SDS011;6405;59.208;18.216;2023-03-14T06:43:31;3.17;;;0.67;;
12681;SDS011;6405;59.208;18.216;2023-03-14T06:45:57;3.53;;;0.80;;
12681;SDS011;6405;59.208;18.216;2023-03-14T06:48:23;1.73;;;0.70;;
12681;SDS011;6405;59.208;18.216;2023-03-14T06:50:49;1.60;;;0.60;;
12681;SDS011;6405;59.208;18.216;2023-03-14T06:53:14;3.87;;;1.00;;
12681;SDS011;6405;59.208;18.216;2023-03-14T06:55:40;2.83;;;0.60;;
12681;SDS011;6405;59.208;18.216;2023-03-14T06:58:06;2.00;;;0.50;;
12681;SDS011;6405;59.208;18.216;2023-03-14T07:00:33;0.60;;;0.40;;
12681;SDS011;6405;59.208;18.216;2023-03-14T07:02:59;3.60;;;0.43;;
12681;SDS011;6405;59.208;18.216;2023-03-14T07:05:25;2.80;;;0.80;;
12681;SDS011;6405;59.208;18.216;2023-03-14T07:07:50;3.63;;;0.70;;
12681;SDS011;6405;59.208;18.216;2023-03-14T07:10:16;1.40;;;0.77;;
12681;SDS011;6405;59.208;18.216;2023-03-14T07:12:42;1.43;;;0.43;;
12681;SDS011;6405;59.208;18.216;2023-03-14T07:15:08;3.83;;;0.53;;
12681;SDS011;6405;59.208;18.216;2023-03-14T07:17:34;2.53;;;0.70;;
12681;SDS011;6405;59.208;18.216;2023-03-14T07:20:00;4.73;;;1.07;;
12681;SDS011;6405;59.208;18.216;2023-03-14T07:22:26;3.03;;;0.60;;
12681;SDS011;6405;59.208;18.216;2023-03-14T07:24:51;1.40;;;0.50;;
12681;SDS011;6405;59.208;18.216;2023-03-14T07:27:17;1.83;;;0.70;;
12681;SDS011;6405;59.208;18.216;2023-03-14T07:29:42;2.67;;;0.67;;
12681;SDS011;6405;59.208;18.216;2023-03-14T07:32:08;2.97;;;0.60;;
12681;SDS011;6405;59.208;18.216;2023-03-14T07:34:34;2.00;;;0.43;;
12681;SDS011;6405;59.208;18.216;2023-03-14T07:37:00;1.83;;;0.50;;
12681;SDS011;6405;59.208;18.216;2023-03-14T07:39:25;2.37;;;0.70;;
12681;SDS011;6405;59.208;18.216;2023-03-14T07:41:51;2.63;;;0.50;;
12681;SDS011;6405;59.208;18.216;2023-03-14T07:44:17;1.07;;;0.50;;
12681;SDS011;6405;59.208;18.216;2023-03-14T07:46:42;1.03;;;0.57;;
12681;SDS011;6405;59.208;18.216;2023-03-14T07:49:08;2.47;;;0.50;;
12681;SDS011;6405;59.208;18.216;2023-03-14T07:51:34;2.00;;;0.50;;
12681;SDS011;6405;59.208;18.216;2023-03-14T07:53:59;1.77;;;0.80;;
12681;SDS011;6405;59.208;18.216;2023-03-14T07:56:25;0.30;;;0.30;;
12681;SDS011;6405;59.208;18.216;2023-03-14T07:58:50;1.03;;;0.47;;
12681;SDS011;6405;59.208;18.216;2023-03-14T08:01:16;1.03;;;0.30;;
12681;SDS011;6405;59.208;18.216;2023-03-14T08:03:42;0.40;;;0.30;;
12681;SDS011;6405;59.208;18.216;2023-03-14T08:06:07;0.80;;;0.40;;
12681;SDS011;6405;59.208;18.216;2023-03-14T08:08:33;1.90;;;0.57;;
12681;SDS011;6405;59.208;18.216;2023-03-14T08:11:03;1.93;;;0.53;;
12681;SDS011;6405;59.208;18.216;2023-03-14T08:13:29;2.30;;;0.60;;
12681;SDS011;6405;59.208;18.216;2023-03-14T08:15:55;1.70;;;0.50;;
12681;SDS011;6405;59.208;18.216;2023-03-14T08:18:21;0.90;;;0.50;;
12681;SDS011;6405;59.208;18.216;2023-03-14T08:20:46;1.93;;;0.40;;
12681;SDS011;6405;59.208;18.216;2023-03-14T08:23:12;0.93;;;0.30;;
12681;SDS011;6405;59.208;18.216;2023-03-14T08:25:37;0.93;;;0.30;;
12681;SDS011;6405;59.208;18.216;2023-03-14T08:28:04;1.10;;;0.60;;
12681;SDS011;6405;59.208;18.216;2023-03-14T08:30:29;0.13;;;0.13;;
12681;SDS011;6405;59.208;18.216;2023-03-14T08:32:58;1.70;;;0.30;;
12681;SDS011;6405;59.208;18.216;2023-03-14T08:35:24;2.33;;;0.37;;
12681;SDS011;6405;59.208;18.216;2023-03-14T08:37:51;1.30;;;0.40;;
12681;SDS011;6405;59.208;18.216;2023-03-14T08:40:17;0.60;;;0.20;;
12681;SDS011;6405;59.208;18.216;2023-03-14T08:42:43;3.90;;;0.50;;
12681;SDS011;6405;59.208;18.216;2023-03-14T08:45:13;3.13;;;0.50;;
12681;SDS011;6405;59.208;18.216;2023-03-14T08:47:41;1.83;;;0.47;;
12681;SDS011;6405;59.208;18.216;2023-03-14T08:50:08;0.63;;;0.20;;
12681;SDS011;6405;59.208;18.216;2023-03-14T08:52:34;0.97;;;0.30;;
12681;SDS011;6405;59.208;18.216;2023-03-14T08:55:02;0.83;;;0.23;;
12681;SDS011;6405;59.208;18.216;2023-03-14T08:57:28;0.53;;;0.30;;
12681;SDS011;6405;59.208;18.216;2023-03-14T08:59:54;0.83;;;0.43;;
12681;SDS011;6405;59.208;18.216;2023-03-14T09:02:21;1.83;;;0.40;;
12681;SDS011;6405;59.208;18.216;2023-03-14T09:04:47;0.97;;;0.30;;
12681;SDS011;6405;59.208;18.216;2023-03-14T09:07:15;1.47;;;0.30;;
12681;SDS011;6405;59.208;18.216;2023-03-14T09:09:41;0.53;;;0.30;;
12681;SDS011;6405;59.208;18.216;2023-03-14T09:12:06;0.87;;;0.20;;
12681;SDS011;6405;59.208;18.216;2023-03-14T09:14:32;0.53;;;0.23;;
12681;SDS011;6405;59.208;18.216;2023-03-14T09:16:58;0.73;;;0.37;;
12681;SDS011;6405;59.208;18.216;2023-03-14T09:19:23;0.20;;;0.20;;
12681;SDS011;6405;59.208;18.216;2023-03-14T09:21:49;1.43;;;0.33;;
12681;SDS011;6405;59.208;18.216;2023-03-14T09:24:15;0.90;;;0.40;;
12681;SDS011;6405;59.208;18.216;2023-03-14T09:26:42;0.47;;;0.20;;
12681;SDS011;6405;59.208;18.216;2023-03-14T09:29:08;1.53;;;0.40;;
12681;SDS011;6405;59.208;18.216;2023-03-14T09:31:33;1.60;;;0.20;;
12681;SDS011;6405;59.208;18.216;2023-03-14T09:34:00;0.20;;;0.20;;
12681;SDS011;6405;59.208;18.216;2023-03-14T09:36:26;0.50;;;0.20;;
12681;SDS011;6405;59.208;18.216;2023-03-14T09:38:52;0.57;;;0.30;;
12681;SDS011;6405;59.208;18.216;2023-03-14T09:41:20;2.80;;;0.60;;
12681;SDS011;6405;59.208;18.216;2023-03-14T09:43:49;1.20;;;0.27;;
12681;SDS011;6405;59.208;18.216;2023-03-14T09:46:25;0.90;;;0.40;;
12681;SDS011;6405;59.208;18.216;2023-03-14T09:48:52;0.60;;;0.20;;
12681;SDS011;6405;59.208;18.216;2023-03-14T09:51:18;0.87;;;0.33;;
12681;SDS011;6405;59.208;18.216;2023-03-14T09:53:48;1.03;;;0.30;;
12681;SDS011;6405;59.208;18.216;2023-03-14T09:58:57;0.40;;;0.20;;
12681;SDS011;6405;59.208;18.216;2023-03-14T10:01:26;0.20;;;0.17;;
12681;SDS011;6405;59.208;18.216;2023-03-14T10:03:57;0.73;;;0.30;;
12681;SDS011;6405;59.208;18.216;2023-03-14T10:06:39;0.97;;;0.50;;
12681;SDS011;6405;59.208;18.216;2023-03-14T10:09:05;0.80;;;0.60;;
12681;SDS011;6405;59.208;18.216;2023-03-14T10:11:31;2.63;;;0.40;;
12681;SDS011;6405;59.208;18.216;2023-03-14T10:14:10;1.37;;;0.67;;
12681;SDS011;6405;59.208;18.216;2023-03-14T10:16:41;0.83;;;0.70;;
12681;SDS011;6405;59.208;18.216;2023-03-14T10:19:12;2.70;;;1.07;;
12681;SDS011;6405;59.208;18.216;2023-03-14T10:21:41;2.60;;;0.90;;
12681;SDS011;6405;59.208;18.216;2023-03-14T10:27:01;0.27;;;0.20;;
12681;SDS011;6405;59.208;18.216;2023-03-14T10:29:32;1.93;;;0.73;;
12681;SDS011;6405;59.208;18.216;2023-03-14T10:32:03;2.00;;;0.60;;
12681;SDS011;6405;59.208;18.216;2023-03-14T10:34:34;0.53;;;0.27;;
12681;SDS011;6405;59.208;18.216;2023-03-14T10:37:14;1.17;;;0.30;;
12681;SDS011;6405;59.208;18.216;2023-03-14T10:39:49;1.07;;;0.40;;
12681;SDS011;6405;59.208;18.216;2023-03-14T10:42:24;0.73;;;0.20;;
12681;SDS011;6405;59.208;18.216;2023-03-14T10:44:55;0.50;;;0.23;;
12681;SDS011;6405;59.208;18.216;2023-03-14T10:47:24;1.40;;;0.40;;
12681;SDS011;6405;59.208;18.216;2023-03-14T10:49:51;0.30;;;0.27;;
12681;SDS011;6405;59.208;18.216;2023-03-14T10:52:20;1.47;;;0.30;;
12681;SDS011;6405;59.208;18.216;2023-03-14T10:55:00;1.80;;;0.47;;
12681;SDS011;6405;59.208;18.216;2023-03-14T10:57:38;0.20;;;0.20;;
12681;SDS011;6405;59.208;18.216;2023-03-14T11:00:20;0.70;;;0.23;;
12681;SDS011;6405;59.208;18.216;2023-03-14T11:05:36;0.40;;;0.20;;
12681;SDS011;6405;59.208;18.216;2023-03-14T11:08:09;0.20;;;0.20;;
12681;SDS011;6405;59.208;18.216;2023-03-14T11:10:43;0.47;;;0.10;;
12681;SDS011;6405;59.208;18.216;2023-03-14T11:13:35;0.40;;;0.30;;
12681;SDS011;6405;59.208;18.216;2023-03-14T11:18:51;0.20;;;0.20;;
12681;SDS011;6405;59.208;18.216;2023-03-14T11:21:58;0.37;;;0.33;;
12681;SDS011;6405;59.208;18.216;2023-03-14T11:24:47;0.30;;;0.20;;
12681;SDS011;6405;59.208;18.216;2023-03-14T11:27:47;0.20;;;0.13;;
12681;SDS011;6405;59.208;18.216;2023-03-14T11:33:02;0.30;;;0.20;;
12681;SDS011;6405;59.208;18.216;2023-03-14T11:38:27;1.03;;;0.20;;
12681;SDS011;6405;59.208;18.216;2023-03-14T11:40:54;0.30;;;0.20;;
12681;SDS011;6405;59.208;18.216;2023-03-14T11:43:28;0.27;;;0.20;;
12681;SDS011;6405;59.208;18.216;2023-03-14T11:46:10;0.73;;;0.30;;
12681;SDS011;6405;59.208;18.216;2023-03-14T11:48:50;1.23;;;0.47;;
12681;SDS011;6405;59.208;18.216;2023-03-14T11:51:21;0.30;;;0.20;;
12681;SDS011;6405;59.208;18.216;2023-03-14T11:56:37;0.97;;;0.40;;
12681;SDS011;6405;59.208;18.216;2023-03-14T11:59:17;1.23;;;0.50;;
12681;SDS011;6405;59.208;18.216;2023-03-14T12:01:51;2.00;;;0.30;;
12681;SDS011;6405;59.208;18.216;2023-03-14T12:07:29;1.40;;;0.47;;
12681;SDS011;6405;59.208;18.216;2023-03-14T12:10:07;0.80;;;0.60;;
12681;SDS011;6405;59.208;18.216;2023-03-14T12:12:33;0.47;;;0.40;;
12681;SDS011;6405;59.208;18.216;2023-03-14T12:15:00;0.80;;;0.40;;
12681;SDS011;6405;59.208;18.216;2023-03-14T12:17:35;0.60;;;0.50;;
12681;SDS011;6405;59.208;18.216;2023-03-14T12:22:46;0.97;;;0.80;;
12681;SDS011;6405;59.208;18.216;2023-03-14T12:25:28;0.60;;;0.57;;
12681;SDS011;6405;59.208;18.216;2023-03-14T12:33:11;2.70;;;0.80;;
12681;SDS011;6405;59.208;18.216;2023-03-14T12:35:44;0.57;;;0.43;;
12681;SDS011;6405;59.208;18.216;2023-03-14T12:38:12;1.30;;;0.67;;
12681;SDS011;6405;59.208;18.216;2023-03-14T12:40:52;1.50;;;0.60;;
12681;SDS011;6405;59.208;18.216;2023-03-14T12:43:28;1.03;;;0.70;;
12681;SDS011;6405;59.208;18.216;2023-03-14T12:46:08;0.60;;;0.40;;
12681;SDS011;6405;59.208;18.216;2023-03-14T12:51:37;0.53;;;0.33;;
12681;SDS011;6405;59.208;18.216;2023-03-14T12:56:43;0.50;;;0.30;;
12681;SDS011;6405;59.208;18.216;2023-03-14T13:02:14;0.43;;;0.43;;
12681;SDS011;6405;59.208;18.216;2023-03-14T13:05:09;0.70;;;0.40;;
12681;SDS011;6405;59.208;18.216;2023-03-14T13:13:23;0.83;;;0.67;;
12681;SDS011;6405;59.208;18.216;2023-03-14T13:15:53;0.87;;;0.50;;
12681;SDS011;6405;59.208;18.216;2023-03-14T13:18:39;2.97;;;0.60;;
12681;SDS011;6405;59.208;18.216;2023-03-14T13:21:10;1.30;;;0.50;;
12681;SDS011;6405;59.208;18.216;2023-03-14T13:23:54;1.00;;;0.43;;
12681;SDS011;6405;59.208;18.216;2023-03-14T13:26:21;2.07;;;0.60;;
12681;SDS011;6405;59.208;18.216;2023-03-14T13:28:50;0.33;;;0.33;;
12681;SDS011;6405;59.208;18.216;2023-03-14T13:31:23;0.97;;;0.30;;
12681;SDS011;6405;59.208;18.216;2023-03-14T13:34:00;1.67;;;0.40;;
12681;SDS011;6405;59.208;18.216;2023-03-14T13:36:26;0.77;;;0.33;;
12681;SDS011;6405;59.208;18.216;2023-03-14T13:38:59;2.80;;;0.50;;
12681;SDS011;6405;59.208;18.216;2023-03-14T13:41:26;2.20;;;1.13;;
12681;SDS011;6405;59.208;18.216;2023-03-14T13:43:57;3.47;;;1.40;;
12681;SDS011;6405;59.208;18.216;2023-03-14T13:46:28;1.50;;;1.20;;
12681;SDS011;6405;59.208;18.216;2023-03-14T13:48:55;1.87;;;0.70;;
12681;SDS011;6405;59.208;18.216;2023-03-14T13:51:23;1.33;;;0.43;;
12681;SDS011;6405;59.208;18.216;2023-03-14T13:53:53;0.60;;;0.60;;
12681;SDS011;6405;59.208;18.216;2023-03-14T13:56:24;1.80;;;0.60;;
12681;SDS011;6405;59.208;18.216;2023-03-14T13:58:52;2.27;;;0.70;;
12681;SDS011;6405;59.208;18.216;2023-03-14T14:03:56;1.20;;;0.83;;
12681;SDS011;6405;59.208;18.216;2023-03-14T14:08:54;1.47;;;1.03;;
12681;SDS011;6405;59.208;18.216;2023-03-14T14:11:26;1.43;;;0.80;;
12681;SDS011;6405;59.208;18.216;2023-03-14T14:14:27;3.40;;;1.60;;
12681;SDS011;6405;59.208;18.216;2023-03-14T14:16:59;3.50;;;1.60;;
12681;SDS011;6405;59.208;18.216;2023-03-14T14:19:27;1.87;;;1.30;;
12681;SDS011;6405;59.208;18.216;2023-03-14T14:21:55;1.50;;;1.30;;
12681;SDS011;6405;59.208;18.216;2023-03-14T14:24:22;1.03;;;0.90;;
12681;SDS011;6405;59.208;18.216;2023-03-14T14:26:51;1.70;;;0.63;;
12681;SDS011;6405;59.208;18.216;2023-03-14T14:29:23;1.10;;;0.70;;
12681;SDS011;6405;59.208;18.216;2023-03-14T14:32:02;0.70;;;0.50;;
12681;SDS011;6405;59.208;18.216;2023-03-14T14:34:39;1.63;;;0.80;;
12681;SDS011;6405;59.208;18.216;2023-03-14T14:37:20;1.90;;;0.80;;
12681;SDS011;6405;59.208;18.216;2023-03-14T14:39:48;2.93;;;0.97;;
12681;SDS011;6405;59.208;18.216;2023-03-14T14:42:16;1.07;;;0.87;;
12681;SDS011;6405;59.208;18.216;2023-03-14T14:44:43;1.53;;;0.57;;
12681;SDS011;6405;59.208;18.216;2023-03-14T14:47:14;0.90;;;0.60;;
12681;SDS011;6405;59.208;18.216;2023-03-14T14:49:43;0.73;;;0.50;;
12681;SDS011;6405;59.208;18.216;2023-03-14T14:52:15;2.00;;;0.67;;
12681;SDS011;6405;59.208;18.216;2023-03-14T14:54:44;1.33;;;0.53;;
12681;SDS011;6405;59.208;18.216;2023-03-14T14:59:54;1.60;;;0.70;;
12681;SDS011;6405;59.208;18.216;2023-03-14T15:02:29;0.90;;;0.50;;
12681;SDS011;6405;59.208;18.216;2023-03-14T15:04:55;0.63;;;0.60;;
12681;SDS011;6405;59.208;18.216;2023-03-14T15:07:21;0.80;;;0.70;;
12681;SDS011;6405;59.208;18.216;2023-03-14T15:09:46;1.53;;;1.00;;
12681;SDS011;6405;59.208;18.216;2023-03-14T15:12:12;0.90;;;0.80;;
12681;SDS011;6405;59.208;18.216;2023-03-14T15:14:38;1.87;;;0.90;;
12681;SDS011;6405;59.208;18.216;2023-03-14T15:17:05;1.37;;;1.00;;
12681;SDS011;6405;59.208;18.216;2023-03-14T15:19:34;1.27;;;0.87;;
12681;SDS011;6405;59.208;18.216;2023-03-14T15:21:59;0.90;;;0.70;;
12681;SDS011;6405;59.208;18.216;2023-03-14T15:24:25;2.60;;;1.87;;
12681;SDS011;6405;59.208;18.216;2023-03-14T15:26:51;1.37;;;0.80;;
12681;SDS011;6405;59.208;18.216;2023-03-14T15:29:17;1.60;;;0.90;;
12681;SDS011;6405;59.208;18.216;2023-03-14T15:31:42;1.70;;;1.60;;
12681;SDS011;6405;59.208;18.216;2023-03-14T15:34:09;1.67;;;1.00;;
12681;SDS011;6405;59.208;18.216;2023-03-14T15:36:35;1.07;;;0.97;;
12681;SDS011;6405;59.208;18.216;2023-03-14T15:39:02;2.50;;;1.40;;
12681;SDS011;6405;59.208;18.216;2023-03-14T15:41:29;1.17;;;1.07;;
12681;SDS011;6405;59.208;18.216;2023-03-14T15:43:55;2.30;;;1.30;;
12681;SDS011;6405;59.208;18.216;2023-03-14T15:46:21;1.30;;;0.90;;
12681;SDS011;6405;59.208;18.216;2023-03-14T15:48:47;0.80;;;0.80;;
12681;SDS011;6405;59.208;18.216;2023-03-14T15:51:14;1.20;;;0.93;;
12681;SDS011;6405;59.208;18.216;2023-03-14T15:53:40;1.47;;;1.20;;
12681;SDS011;6405;59.208;18.216;2023-03-14T15:56:06;0.90;;;0.87;;
12681;SDS011;6405;59.208;18.216;2023-03-14T15:58:35;1.30;;;1.03;;